• Join FlightAware (Why Join?)
  • Login
  • US Flag 
01:16PM EDT


 

Airport Tracker/Info


-or-


 

Live Flight TrackerFlight Track Log ✈ UCA3598 ✈ 23-Sep-2013 ✈ KIAD - KBGM

Flight Track Log - Related Links

Times and Time Zones

All times are in EDT time to prevent confusion due to time zone crossing. See the UCA3598 flight status page for this flight to view local times or setup timezone preferences in your user account.

Time Position Orientation Groundspeed Altitude Reporting Facility
EDT Latitude Longitude Course Direction KTS MPH feet Rate Location/Type
10:17PM 38.9833 -77.4500 339° North 141 162 2,000  Level Potomac TRACON
10:18PM 39.0167 -77.4667 339° North 174 200 3,200 1,200 Climbing Potomac TRACON
10:19PM 39.0667 -77.4833 345° North 181 208 4,300 1,140 Climbing Potomac TRACON
10:20PM 39.1167 -77.5000 346° North 195 224 5,400 1,200 Climbing Potomac TRACON
10:22PM 39.2194 -77.4936 North 199 229 8,000 1,200 Climbing Washington Center
10:23PM 39.2758 -77.4872 North 199 229 9,200 1,200 Climbing Washington Center
10:24PM 39.3300 -77.4833 North 199 229 10,500 1,320 Climbing Washington Center
10:25PM 39.3864 -77.4767 North 199 229 11,900 1,260 Climbing Washington Center
10:26PM 39.4428 -77.4728 North 199 229 13,100 1,200 Climbing Washington Center
10:27PM 39.4969 -77.4686 North 199 229 14,400 1,080 Climbing Washington Center
10:29PM 39.6153 -77.4575 North 197 227 16,600 1,080 Climbing New York Center
10:30PM 39.6717 -77.4550 North 197 227 17,800 900 Climbing New York Center
10:31PM 39.7242 -77.4517 North 197 227 18,500 600 Climbing New York Center
10:32PM 39.7719 -77.4158 30° Northeast 192 221 19,000 240 Climbing New York Center
10:33PM 39.8283 -77.3806 26° Northeast 212 244 19,000  Level New York Center
10:34PM 39.8947 -77.3461 22° Northeast 236 272 19,000  Level New York Center
10:35PM 39.9592 -77.3142 21° North 243 280 19,000  Level New York Center
10:36PM 40.0256 -77.2800 22° Northeast 248 285 19,000  Level New York Center
10:37PM 40.0900 -77.2478 21° North 248 285 19,000  Level New York Center
10:38PM 40.1564 -77.2133 22° Northeast 248 285 19,000 -360 Level New York Center
10:39PM 40.2208 -77.1786 22° Northeast 248 285 18,400 -840 Descending New York Center
10:40PM 40.2875 -77.1439 22° Northeast 248 285 17,400 -780 Descending New York Center
10:41PM 40.3583 -77.1067 22° Northeast 253 291 16,900 -300 Descending New York Center
10:42PM 40.4267 -77.0750 19° North 253 291 16,900  Level New York Center
10:43PM 40.4911 -77.0369 24° Northeast 253 291 16,900 -240 Level New York Center
10:44PM 40.5617 -77.0025 20° North 253 291 16,500 -660 Descending New York Center
10:45PM 40.6283 -76.9647 23° Northeast 258 297 15,600 -780 Descending New York Center
10:46PM 40.6992 -76.9275 22° Northeast 258 297 15,000 -300 Descending New York Center
10:47PM 40.7678 -76.8925 21° North 258 297 15,000  Level New York Center
10:48PM 40.8319 -76.8569 23° Northeast 258 297 15,000  Level New York Center
10:49PM 40.8983 -76.8244 20° North 253 291 15,100 -180 Climbing New York Center
10:50PM 40.9603 -76.7917 22° Northeast 253 291 14,700 -780 Descending New York Center
10:51PM 41.0289 -76.7536 23° Northeast 258 297 13,600 -900 Descending New York Center
10:52PM 41.0997 -76.7158 22° Northeast 263 303 13,000 -300 Descending New York Center
10:53PM 41.1658 -76.6831 20° North 258 297 13,000  Level New York Center
10:54PM 41.2367 -76.6422 23° Northeast 253 291 13,000  Level New York Center
10:55PM 41.3011 -76.6036 24° Northeast 253 291 13,000  Level New York Center
10:56PM 41.3608 -76.5731 21° North 253 291 13,000  Level New York Center
10:57PM 41.4272 -76.5372 22° Northeast 253 291 13,000 -300 Level New York Center
10:58PM 41.4978 -76.4989 22° Northeast 253 291 12,500 -840 Descending New York Center
10:59PM 41.5683 -76.4633 21° North 253 291 11,400 -1,140 Descending New York Center
11:00PM 41.6367 -76.4247 23° Northeast 259 298 10,200 -1,200 Descending New York Center
11:01PM 41.6947 -76.3853 27° Northeast 259 298 9,100 -1,560 Descending New York Center
11:02PM 41.7619 -76.3325 30° Northeast 247 284 7,200 -1,860 Descending New York Center
11:03PM 41.8200 -76.2900 29° Northeast 242 278 5,400 -1,500 Descending New York Center
11:04PM 41.8764 -76.2444 31° Northeast 236 272 4,200 -720 Descending New York Center
11:05PM 41.9239 -76.2039 32° Northeast 236 272 4,000 -120 Descending New York Center
11:06PM 41.9800 -76.1611 30° Northeast 231 266 4,000  Level New York Center
11:07PM 41.9886 -76.0667 83° East 205 236 4,000  Level New York Center
11:08PM 41.9861 -75.9772 92° East 227 261 4,000  Level New York Center
11:09PM 41.9900 -75.8883 87° East 241 277 4,000 -60 Level New York Center
11:10PM 42.0214 -75.8350 52° Northeast 187 215 3,900 -60 Descending New York Center
11:11PM 42.0783 -75.8700 335° Northwest 175 201 3,900 -300 Level New York Center
11:12PM 42.1283 -75.9131 327° Northwest 191 220 3,400 -720 Descending New York Center
11:13PM 42.1644 -75.9467 325° Northwest 181 208 2,500 -900 Descending New York Center